Latest Weather Observations for Falls Creek

IDV60801

Issued at 4:22 pm EST Wednesday 23 September 2020 (issued every 10 minutes, with the page automatically refreshed every 10 minutes)

About weather observations | Map of weather stations | Latest weather observations for VIC | Other Formats
Station Details ID: 083084 Name: FALLS CREEK Lat: -36.87 Lon: 147.28 Height: 1765.0 m
Data from the previous 72 hours. | See also: Recent months at Falls Creek
Date/Time
EST
Temp
°C
App
Temp
°C
Dew
Point
°C
Rel
Hum
%
Delta-T
°C
Wind Press
QNH
hPa
Press
MSL
hPa
Rain since
9am
mm
Dir  Spd
km/h
Gust
km/h
Spd
kts
Gust
kts
23/04:00pm -0.4 -7.4 -0.5 99 0.0 WNW 26 43 14 23 1009.5 1009.6 4.8
23/03:30pm -0.3 -7.3 -0.4 99 0.0 WNW 26 35 14 19 1009.5 1009.6 4.8
23/03:06pm -0.3 -7.7 -0.4 99 0.0 NW 28 46 15 25 1009.2 1009.2 4.6
23/03:00pm -0.4 -8.5 -0.5 99 0.0 NW 32 46 17 25 1008.9 1009.0 4.6
23/02:30pm -0.6 -10.1 -0.7 99 0.0 NW 39 61 21 33 1008.7 1008.7 4.4
23/02:04pm -0.6 -8.8 -0.7 99 0.0 NW 32 50 17 27 1009.0 1009.1 4.2
23/02:00pm -0.6 -9.0 -0.7 99 0.0 NNW 33 50 18 27 1009.2 1009.2 4.2
23/01:30pm -0.7 -10.2 -0.8 99 0.0 NNW 39 57 21 31 1008.7 1008.7 3.8
23/01:29pm -0.7 -9.8 -0.8 99 0.0 NNW 37 57 20 31 1008.7 1008.7 3.8
23/01:23pm -0.7 -10.2 -0.8 99 0.0 NNW 39 59 21 32 1008.6 1008.6 3.6
23/01:00pm -0.6 -10.1 -0.7 99 0.0 NW 39 57 21 31 1009.3 1009.3 0.0
23/12:54pm -0.7 -10.6 -0.8 99 0.0 NW 41 57 22 31 1009.3 1009.3 0.0
23/12:30pm -0.5 -10.4 -0.6 99 0.0 NNW 41 61 22 33 1008.7 1008.7 0.0
23/12:00pm -0.5 -8.6 -0.6 99 0.0 NW 32 52 17 28 1009.3 1009.3 0.0
23/11:30am -0.7 -10.2 -0.8 99 0.0 NW 39 63 21 34 1009.0 1009.1 0.0
23/11:00am -0.9 -9.7 -1.0 99 0.0 NW 35 57 19 31 1009.4 1009.5 0.0
23/10:30am -1.0 -9.8 -1.1 99 0.0 NW 35 61 19 33 1009.5 1009.6 0.0
23/10:05am -1.1 -9.5 -1.2 99 0.0 NW 33 52 18 28 1009.5 1009.6 0.0
23/10:00am -1.1 -9.3 -1.2 99 0.0 NW 32 48 17 26 1009.6 1009.7 0.0
23/09:30am -1.4 -9.7 -1.5 99 0.0 NNW 32 54 17 29 1009.8 1009.8 0.0
23/09:00am -1.6 -10.5 -1.7 99 0.0 NNW 35 59 19 32 1009.6 1009.7 5.2
23/08:30am -1.8 -10.3 -1.9 99 -0.1 NNW 33 59 18 32 1009.9 1010.0 5.2
23/08:00am -1.9 -9.5 -2.0 99 -0.1 NW 28 48 15 26 1009.8 1009.8 5.2
23/07:30am -2.0 -10.4 -2.1 99 -0.1 NNW 32 57 17 31 1009.3 1009.3 5.2
23/07:00am -2.1 -11.0 -2.2 99 -0.1 NNW 35 63 19 34 1008.7 1008.7 5.2
23/06:30am -1.9 -10.2 -2.0 99 -0.1 NW 32 56 17 30 1008.7 1008.7 5.2
23/06:00am -2.0 -10.9 -2.1 99 -0.1 NNW 35 61 19 33 1008.5 1008.5 5.2
23/05:30am -1.4 -9.7 -1.5 99 0.0 NW 32 57 17 31 1008.7 1008.7 5.2
23/05:00am -1.3 -10.1 -1.4 99 0.0 NNW 35 59 19 32 1008.2 1008.2 5.2
23/04:30am -1.2 -9.4 -1.3 99 0.0 NW 32 57 17 31 1008.3 1008.3 5.2
23/04:00am -1.0 -9.2 -1.1 99 0.0 NW 32 57 17 31 1008.1 1008.1 5.2
23/03:30am -0.9 -9.3 -1.0 99 0.0 NW 33 56 18 30 1008.3 1008.3 5.2
23/03:00am -0.9 -10.4 -1.0 99 0.0 NW 39 69 21 37 1008.3 1008.3 5.2
23/02:31am -0.9 -10.1 -1.0 99 0.0 NW 37 59 20 32 1008.9 1009.0 5.2
23/02:30am -0.8 -9.9 -0.9 99 0.0 NW 37 54 20 29 1008.9 1009.0 5.2
23/02:11am -0.8 -10.3 -0.9 99 0.0 NW 39 72 21 39 1009.2 1009.2 5.2
23/02:00am -0.6 -8.4 -0.7 99 0.0 NW 30 50 16 27 1009.6 1009.7 5.2
23/01:30am -0.6 -9.0 -0.7 99 0.0 NNW 33 57 18 31 1010.0 1010.1 5.2
23/01:00am -0.5 -9.6 -0.6 99 0.0 NNW 37 61 20 33 1009.9 1010.0 5.2
23/12:30am -0.4 -9.1 -0.5 99 0.0 NNW 35 56 19 30 1010.5 1010.6 5.2
23/12:00am -0.3 -7.7 -0.4 99 0.0 NW 28 50 15 27 1010.7 1010.8 5.2
 
Date/Time
EST
Temp
°C
App
Temp
°C
Dew
Point
°C
Rel
Hum
%
Delta-T
°C
Wind Press
QNH
hPa
Press
MSL
hPa
Rain since
9am
mm
Dir  Spd
km/h
Gust
km/h
Spd
kts
Gust
kts
22/11:30pm -0.3 -7.7 -0.4 99 0.0 NW 28 46 15 25 1010.8 1010.9 5.2
22/11:04pm -0.2 -8.3 -0.3 99 0.0 WNW 32 50 17 27 1011.0 1011.1 5.2
22/11:00pm -0.2 -8.9 -0.3 99 0.0 WNW 35 52 19 28 1010.8 1010.9 5.2
22/10:30pm 0.0 -8.6 -0.1 99 0.0 WNW 35 61 19 33 1010.8 1010.9 5.2
22/10:00pm 0.1 -8.2 0.0 99 0.0 NW 33 54 18 29 1011.1 1011.2 5.2
22/09:31pm 0.1 -8.9 0.0 99 0.0 NW 37 59 20 32 1010.7 1010.8 5.2
22/09:30pm 0.1 -8.9 0.0 99 0.0 NW 37 54 20 29 1011.0 1011.1 5.2
22/09:00pm 0.2 -7.8 0.1 99 0.0 WNW 32 56 17 30 1010.8 1010.9 5.2
22/08:30pm 0.1 -8.9 0.0 99 0.0 WNW 37 63 20 34 1010.8 1010.9 5.2
22/08:00pm 0.1 -8.5 0.0 99 0.0 WNW 35 65 19 35 1010.5 1010.6 5.2
22/07:30pm 0.1 -10.1 0.0 99 0.0 WNW 43 72 23 39 1009.9 1010.0 5.2
22/07:22pm 0.1 -11.0 0.0 99 0.0 WNW 48 95 26 51 1009.8 1009.8 5.2
22/07:21pm 0.1 -10.6 0.0 99 0.0 NW 46 95 25 51 1009.9 1010.0 5.2
22/07:16pm 0.1 -10.1 0.0 99 0.0 NW 43 95 23 51 1009.2 1009.2 5.2
22/07:14pm 0.1 -9.3 0.0 99 0.0 NW 39 95 21 51 1009.4 1009.5 5.2
22/07:00pm 0.3 -10.4 0.2 99 0.0 NNW 46 76 25 41 1008.8 1008.8 5.0
22/06:52pm 0.5 -9.6 0.4 99 0.0 NNW 43 76 23 41 1007.6 1007.6 5.0
22/06:30pm 0.8 -7.3 0.7 99 0.0 NNW 33 63 18 34 1007.9 1007.9 4.6
22/06:00pm 0.8 -9.2 0.7 99 0.0 NNW 43 65 23 35 1008.7 1008.7 4.0
22/05:30pm 0.4 -9.3 0.3 99 0.0 NW 41 72 22 39 1008.8 1008.8 3.4
22/05:19pm 0.3 -9.8 0.2 99 0.0 NNW 43 74 23 40 1008.1 1008.1 3.2
22/05:00pm 0.5 -7.7 0.4 99 0.0 NNW 33 56 18 30 1008.2 1008.2 3.0
22/04:41pm 0.4 -8.2 0.3 99 0.0 NW 35 61 19 33 1008.5 1008.5 3.0
22/04:39pm 0.5 -8.8 0.4 99 0.0 NNW 39 61 21 33 1008.2 1008.2 3.0
22/04:32pm 0.8 -8.9 0.7 99 0.0 NNW 41 61 22 33 1007.6 1007.6 2.8
22/04:30pm 0.8 -8.9 0.7 99 0.0 NNW 41 57 22 31 1007.4 1007.4 2.8
22/04:00pm 0.9 -9.1 0.8 99 0.0 NNW 43 67 23 36 1007.1 1007.1 2.4
22/03:32pm 0.8 -7.7 0.7 99 0.0 NNW 35 54 19 29 1007.9 1007.9 1.6
22/03:30pm 0.8 -7.7 0.7 99 0.0 NNW 35 50 19 27 1008.0 1008.0 1.6
22/03:00pm 0.4 -7.6 0.3 99 0.0 NNW 32 54 17 29 1008.3 1008.3 1.0
22/02:31pm 0.2 -7.1 0.1 99 0.0 NW 28 48 15 26 1008.3 1008.3 1.0
22/02:30pm 0.3 -7.0 0.2 99 0.0 NW 28 46 15 25 1008.3 1008.3 1.0
22/02:26pm 0.4 -8.6 0.3 99 0.0 NW 37 63 20 34 1008.2 1008.2 1.0
22/02:00pm 1.0 -9.1 0.6 97 0.2 NNW 43 69 23 37 1007.5 1007.5 1.0
22/01:30pm 1.0 -10.3 0.9 99 0.0 NNW 50 80 27 43 1007.7 1007.7 1.0
22/01:26pm 1.5 -9.0 1.4 99 0.0 NNW 46 70 25 38 1007.9 1007.9 1.0
22/01:24pm 1.6 -8.5 1.5 99 0.0 NNW 44 67 24 36 1007.6 1007.6 1.0
22/01:00pm 0.7 -7.3 0.6 99 0.0 NW 32 56 17 30 1008.2 1008.2 1.0
22/12:44pm 0.5 -10.9 0.4 99 0.0 NNW 50 76 27 41 1007.9 1007.9 1.0
22/12:43pm 0.5 -11.3 0.4 99 0.0 NNW 52 76 28 41 1007.6 1007.6 1.0
22/12:30pm 0.8 -8.5 0.7 99 0.0 NNW 39 63 21 34 1007.7 1007.7 1.0
22/12:00pm 1.1 -8.9 1.0 99 0.0 NNW 43 72 23 39 1007.7 1007.7 0.8
22/11:30am 1.0 -9.2 0.9 99 0.0 NNW 44 63 24 34 1007.7 1007.7 0.6
22/11:00am 0.9 -9.3 0.8 99 0.0 NNW 44 69 24 37 1007.7 1007.7 0.6
22/10:30am 0.9 -8.4 0.8 99 0.0 NNW 39 57 21 31 1008.0 1008.0 0.6
22/10:06am 0.4 -7.8 0.3 99 0.0 NNW 33 52 18 28 1008.3 1008.3 0.6
22/10:00am 0.5 -8.1 0.4 99 0.0 NNW 35 52 19 28 1008.2 1008.2 0.4
22/09:35am 0.4 -7.8 0.3 99 0.0 NNW 33 54 18 29 1008.2 1008.2 0.4
22/09:30am 0.4 -7.8 0.3 99 0.0 NNW 33 46 18 25 1008.3 1008.3 0.4
22/09:14am 0.1 -8.9 0.0 99 0.0 NNW 37 57 20 31 1008.3 1008.3 0.2
22/09:00am 0.1 -8.2 0.0 99 0.0 NNW 33 46 18 25 1008.3 1008.3 10.8
22/08:30am 0.0 -8.1 -0.1 99 0.0 NNW 32 41 17 22 1008.3 1008.3 10.8
22/08:00am -0.1 -8.8 -0.2 99 0.0 NNW 35 50 19 27 1008.0 1008.0 10.8
22/07:40am -0.3 -8.6 -0.4 99 0.0 NNW 33 52 18 28 1008.0 1008.0 10.8
22/07:30am -0.3 -8.6 -0.4 99 0.0 NNW 33 48 18 26 1007.7 1007.7 10.6
22/07:00am -0.1 -10.4 -1.1 93 0.4 NNW 43 61 23 33 1007.6 1007.6 10.6
22/06:42am 0.6 -9.7 -1.3 87 0.8 NNW 43 61 23 33 1007.3 1007.2 10.6
22/06:30am 0.7 -9.6 -1.4 86 0.9 NNW 43 57 23 31 1007.0 1007.0 10.6
22/06:00am 0.7 -9.3 -1.7 84 1.0 NNW 41 61 22 33 1007.4 1007.4 10.6
22/05:56am 0.7 -9.3 -1.8 83 1.0 NNW 41 61 22 33 1007.0 1007.0 10.6
22/05:30am 0.6 -8.2 -1.3 87 0.8 NNW 35 46 19 25 1007.1 1007.1 10.6
22/05:00am 0.5 -7.9 -1.4 87 0.8 NNW 33 46 18 25 1007.1 1007.1 10.6
22/04:30am 0.8 -8.1 -1.6 84 1.0 NNW 35 52 19 28 1007.3 1007.2 10.6
22/04:00am 0.9 -7.6 -1.5 84 1.0 NNW 33 46 18 25 1007.3 1007.2 10.6
22/03:30am 0.8 -7.0 -1.1 87 0.8 NNW 30 41 16 22 1007.5 1007.5 10.6
22/03:00am 1.1 -6.6 -0.4 90 0.6 NNW 30 43 16 23 1007.7 1007.7 10.6
22/02:30am 1.0 -6.1 -1.4 84 1.0 NNW 26 37 14 20 1008.3 1008.3 10.6
22/02:00am 0.9 -6.2 -1.5 84 1.0 NNW 26 35 14 19 1008.6 1008.6 10.6
22/01:30am 1.1 -6.1 -2.3 78 1.4 NNW 26 37 14 20 1008.8 1008.8 10.6
22/01:00am 1.3 -6.4 -2.6 75 1.6 NNW 28 35 15 19 1009.2 1009.2 10.6
22/12:30am 1.4 -5.7 -1.0 84 1.0 NNW 26 39 14 21 1009.2 1009.2 10.6
22/12:00am 1.5 -5.0 0.0 90 0.6 NNW 24 35 13 19 1009.3 1009.3 10.6
 
Date/Time
EST
Temp
°C
App
Temp
°C
Dew
Point
°C
Rel
Hum
%
Delta-T
°C
Wind Press
QNH
hPa
Press
MSL
hPa
Rain since
9am
mm
Dir  Spd
km/h
Gust
km/h
Spd
kts
Gust
kts
21/11:30pm 1.4 -3.8 0.1 91 0.5 NW 17 28 9 15 1009.4 1009.5 10.6
21/11:00pm 1.5 -4.5 0.8 95 0.3 NNW 22 28 12 15 1009.4 1009.5 10.6
21/10:30pm 1.6 -3.9 0.9 95 0.3 NNW 19 24 10 13 1009.4 1009.5 10.6
21/10:00pm 1.7 -4.1 0.1 89 0.7 NW 20 30 11 16 1009.3 1009.3 10.6
21/09:30pm 2.0 -3.4 1.0 93 0.4 NNW 19 28 10 15 1009.4 1009.5 10.6
21/09:00pm 2.3 -3.4 0.8 90 0.6 NNW 20 33 11 18 1009.2 1009.2 10.6
21/08:30pm 2.6 -4.8 -1.0 77 1.5 NW 28 43 15 23 1008.9 1009.0 10.6
21/08:00pm 2.7 -4.4 -0.9 77 1.5 NW 26 39 14 21 1008.5 1008.5 10.6
21/07:30pm 3.3 -3.8 1.5 88 0.8 NNW 28 39 15 21 1008.1 1008.1 10.6
21/07:00pm 3.8 -2.5 3.7 99 0.0 NNW 26 43 14 23 1007.5 1007.5 10.6
21/06:30pm 4.1 -3.3 4.0 99 0.0 NNW 32 50 17 27 1007.1 1007.1 10.6
21/06:21pm 4.3 -2.7 4.2 99 0.0 NNW 30 50 16 27 1007.0 1007.0 10.6
21/06:00pm 4.6 -1.6 4.5 99 0.0 NNW 26 48 14 26 1006.9 1006.9 10.6
21/05:30pm 5.0 -2.2 4.9 99 0.0 NNW 32 54 17 29 1007.5 1007.5 10.6
21/05:21pm 5.1 -1.3 5.0 99 0.0 NNW 28 54 15 29 1007.5 1007.5 10.6
21/05:00pm 5.2 -0.8 5.1 99 0.0 NW 26 48 14 26 1008.1 1008.1 10.6
21/04:30pm 5.6 -1.5 5.5 99 0.0 WNW 32 50 17 27 1008.5 1008.5 10.6
21/04:01pm 6.9 0.8 6.8 99 0.1 NW 28 50 15 27 1007.6 1007.6 10.6
21/04:00pm 6.8 0.7 6.7 99 0.1 NW 28 59 15 32 1007.6 1007.6 10.6
21/03:41pm 7.0 -1.5 6.9 99 0.1 NW 41 74 22 40 1007.6 1007.6 10.6
21/03:30pm 7.5 -2.2 7.4 99 0.1 NNW 48 74 26 40 1007.4 1007.4 10.0
21/03:20pm 7.2 -3.4 7.1 99 0.1 NNW 52 78 28 42 1006.8 1006.7 10.0
21/03:11pm 6.9 -2.6 6.8 99 0.1 NW 46 82 25 44 1007.5 1007.5 10.0
21/03:10pm 6.9 -3.0 6.8 99 0.1 NW 48 82 26 44 1007.6 1007.6 10.0
21/03:06pm 6.8 -3.1 6.7 99 0.1 NW 48 82 26 44 1007.3 1007.2 10.0
21/03:00pm 7.3 0.0 7.2 99 0.1 NW 35 65 19 35 1007.4 1007.4 10.0
21/02:30pm 7.5 0.2 7.4 99 0.1 NNW 35 57 19 31 1007.7 1007.7 8.0
21/02:00pm 8.1 -1.5 8.0 99 0.1 NNW 48 72 26 39 1008.0 1008.0 7.8
21/01:30pm 8.2 -1.7 8.1 99 0.1 NNW 50 85 27 46 1008.2 1008.2 7.2
21/01:26pm 8.0 -1.6 7.9 99 0.1 NNW 48 85 26 46 1008.0 1008.0 7.0
21/01:23pm 8.1 -1.5 8.0 99 0.1 N 48 72 26 39 1008.1 1008.1 6.4
21/01:22pm 8.1 -1.9 8.0 99 0.1 N 50 72 27 39 1008.2 1008.2 6.2
21/01:00pm 7.9 -4.6 7.8 99 0.1 N 63 83 34 45 1007.3 1007.2 3.4
21/12:30pm 7.9 -3.2 7.8 99 0.1 N 56 85 30 46 1007.7 1007.7 2.8
21/12:24pm 7.8 -1.5 7.7 99 0.1 N 46 76 25 41 1008.2 1008.2 2.8
21/12:04pm 7.7 0.9 7.6 99 0.1 NNW 33 54 18 29 1009.5 1009.6 2.4
21/12:00pm 7.6 0.9 7.5 99 0.1 NNW 32 44 17 24 1009.9 1010.0 2.4
21/11:30am 7.5 -0.5 7.4 99 0.1 NNW 39 59 21 32 1009.8 1009.8 1.6
21/11:04am 7.4 -1.6 7.3 99 0.1 N 44 67 24 36 1009.6 1009.7 0.2
21/11:00am 7.3 -1.5 7.2 99 0.1 N 43 59 23 32 1010.0 1010.1 0.2
21/10:30am 7.3 -1.1 7.2 99 0.1 NNW 41 63 22 34 1010.6 1010.7 0.2
21/10:01am 7.2 -1.6 7.1 99 0.1 N 43 61 23 33 1010.8 1010.9 0.0
21/10:00am 7.2 -1.8 7.1 99 0.1 N 44 61 24 33 1010.7 1010.8 0.0
21/09:30am 7.0 -2.1 6.9 99 0.1 N 44 63 24 34 1010.8 1010.9 0.0
21/09:07am 6.9 -0.5 6.8 99 0.1 NNW 35 54 19 29 1011.4 1011.6 0.0
21/09:00am 7.0 0.0 6.9 99 0.1 NNW 33 48 18 26 1011.5 1011.7 8.8
21/08:39am 7.0 -0.7 6.9 99 0.1 NNW 37 56 20 30 1011.4 1011.6 8.8
21/08:30am 7.1 -1.0 7.0 99 0.1 NNW 39 56 21 30 1011.4 1011.6 8.4
21/08:15am 7.1 -0.2 7.0 99 0.1 NNW 35 61 19 33 1011.0 1011.1 8.4
21/08:00am 7.1 -0.6 7.0 99 0.1 NNW 37 48 20 26 1010.6 1010.7 8.4
21/07:30am 6.9 -0.1 6.8 99 0.1 NNW 33 46 18 25 1010.7 1010.8 8.4
21/07:00am 6.7 -0.7 6.6 99 0.1 NNW 35 48 19 26 1011.0 1011.1 8.4
21/06:30am 6.7 -1.1 6.6 99 0.1 NNW 37 52 20 28 1011.1 1011.2 8.4
21/06:12am 6.7 -0.7 6.6 99 0.1 NNW 35 54 19 29 1010.8 1010.9 8.4
21/06:00am 6.6 -0.9 6.5 99 0.1 NNW 35 50 19 27 1011.0 1011.1 8.4
21/05:40am 6.7 -0.7 6.6 99 0.1 NNW 35 54 19 29 1010.5 1010.6 8.2
21/05:30am 6.8 -0.6 6.7 99 0.1 NNW 35 50 19 27 1010.6 1010.7 8.2
21/05:20am 6.8 -0.6 6.7 99 0.1 NNW 35 54 19 29 1010.7 1010.8 8.2
21/05:00am 6.9 -1.2 6.8 99 0.1 NNW 39 52 21 28 1010.6 1010.7 8.2
21/04:30am 6.9 -0.9 6.8 99 0.1 NNW 37 50 20 27 1011.0 1011.1 8.2
21/04:10am 6.9 -0.9 6.8 99 0.1 NNW 37 56 20 30 1011.1 1011.2 8.0
21/04:00am 6.9 -1.2 6.8 99 0.1 NNW 39 50 21 27 1011.1 1011.2 8.0
21/03:30am 6.9 -1.6 6.8 99 0.1 N 41 57 22 31 1011.2 1011.3 7.8
21/03:00am 6.7 -1.9 6.6 99 0.1 NNW 41 59 22 32 1011.2 1011.3 7.8
21/02:34am 6.9 -1.2 6.8 99 0.1 NNW 39 57 21 31 1011.9 1012.1 7.8
21/02:30am 6.9 -1.6 6.8 99 0.1 NNW 41 57 22 31 1012.0 1012.2 7.8
21/02:00am 6.8 -1.8 6.7 99 0.1 NNW 41 67 22 36 1012.4 1012.6 7.8
21/01:30am 6.8 -0.6 6.7 99 0.1 NNW 35 54 19 29 1012.7 1012.9 7.6
21/01:00am 6.8 0.3 6.7 99 0.1 NNW 30 48 16 26 1012.9 1013.1 7.6
21/12:30am 6.7 0.2 6.6 99 0.1 NNW 30 50 16 27 1013.2 1013.4 7.4
21/12:01am 6.7 -1.1 6.6 99 0.1 NNW 37 56 20 30 1013.1 1013.3 7.4
21/12:00am 6.6 -1.6 6.5 99 0.1 NNW 39 56 21 30 1013.0 1013.2 7.4
 
Date/Time
EST
Temp
°C
App
Temp
°C
Dew
Point
°C
Rel
Hum
%
Delta-T
°C
Wind Press
QNH
hPa
Press
MSL
hPa
Rain since
9am
mm
Dir  Spd
km/h
Gust
km/h
Spd
kts
Gust
kts
20/11:39pm 6.8 0.3 6.7 99 0.1 NNW 30 48 16 26 1013.1 1013.3 7.4
20/11:30pm 6.6 -0.5 6.5 99 0.1 NNW 33 50 18 27 1012.9 1013.1 7.4
20/11:02pm 6.6 -0.9 6.5 99 0.1 NNW 35 54 19 29 1013.1 1013.3 7.4
20/11:00pm 6.6 -0.5 6.5 99 0.1 NNW 33 48 18 26 1013.2 1013.4 7.4
20/10:30pm 6.5 -0.6 6.4 99 0.1 NNW 33 52 18 28 1013.1 1013.3 7.4
20/10:00pm 6.4 -2.2 6.3 99 0.1 NNW 41 56 22 30 1012.7 1012.9 7.2
20/09:35pm 6.2 -1.7 6.1 99 0.0 NNW 37 57 20 31 1012.6 1012.8 7.2
20/09:30pm 6.3 -1.2 6.2 99 0.1 NNW 35 52 19 28 1012.7 1012.9 7.2
20/09:00pm 6.2 -2.5 6.1 99 0.1 NW 41 59 22 32 1012.6 1012.8 7.2
20/08:30pm 6.2 -1.3 6.1 99 0.0 NNW 35 54 19 29 1012.6 1012.8 7.0
20/08:00pm 6.5 -2.5 6.4 99 0.1 NNW 43 67 23 36 1012.0 1012.2 7.0
20/07:30pm 6.2 -3.1 6.1 99 0.0 NNW 44 67 24 36 1011.5 1011.7 7.0
20/07:03pm 6.3 -2.7 6.2 99 0.1 NNW 43 65 23 35 1011.2 1011.3 7.0
20/07:00pm 6.2 -3.1 6.1 99 0.1 NNW 44 59 24 32 1011.2 1011.3 7.0
20/06:30pm 6.1 -2.6 6.0 99 0.0 NW 41 61 22 33 1010.6 1010.7 7.0
20/06:00pm 6.0 -3.3 5.9 99 0.0 NNW 44 67 24 36 1010.2 1010.3 6.8
20/05:39pm 6.2 -3.8 6.1 99 0.0 NNW 48 67 26 36 1010.1 1010.2 6.8
20/05:30pm 6.2 -4.2 6.1 99 0.0 NNW 50 65 27 35 1009.9 1010.0 6.8
20/05:01pm 6.4 -2.2 6.3 99 0.1 NNW 41 59 22 32 1010.0 1010.1 6.6
20/05:00pm 6.5 -2.1 6.4 99 0.1 NNW 41 57 22 31 1010.0 1010.1 6.6
20/04:30pm 6.5 -2.5 6.4 99 0.1 NNW 43 61 23 33 1009.9 1010.0 6.6

Other formats

Comma delimited format used in spreadsheet applications
http://www.bom.gov.au/fwo/IDV60801/IDV60801.94903.axf

JavaScript Object Notation format (JSON) in row-major order
http://www.bom.gov.au/fwo/IDV60801/IDV60801.94903.json

Data quality

Most of these data are generated automatically and are frequently updated. Quality checks on data are not normally performed. It is possible for incorrect values to appear. Refer to information at About Latest Weather Observations and please check the disclaimer before using these data.